sensor_id;sensor_type;location;lat;lon;timestamp;P1;durP1;ratioP1;P2;durP2;ratioP2
11691;SDS011;33659;42.672;23.354;2022-11-20T00:00:32;5.90;;;3.58;;
11691;SDS011;33659;42.672;23.354;2022-11-20T00:03:00;7.90;;;3.90;;
11691;SDS011;33659;42.672;23.354;2022-11-20T00:05:27;4.75;;;3.55;;
11691;SDS011;33659;42.672;23.354;2022-11-20T00:07:53;6.28;;;3.88;;
11691;SDS011;33659;42.672;23.354;2022-11-20T00:10:20;5.53;;;4.10;;
11691;SDS011;33659;42.672;23.354;2022-11-20T00:12:46;5.95;;;4.38;;
11691;SDS011;33659;42.672;23.354;2022-11-20T00:15:13;8.85;;;5.70;;
11691;SDS011;33659;42.672;23.354;2022-11-20T00:17:41;8.65;;;4.90;;
11691;SDS011;33659;42.672;23.354;2022-11-20T00:20:08;8.85;;;4.85;;
11691;SDS011;33659;42.672;23.354;2022-11-20T00:22:36;7.63;;;4.65;;
11691;SDS011;33659;42.672;23.354;2022-11-20T00:25:03;4.30;;;2.80;;
11691;SDS011;33659;42.672;23.354;2022-11-20T00:27:30;3.60;;;2.58;;
11691;SDS011;33659;42.672;23.354;2022-11-20T00:29:56;5.32;;;4.10;;
11691;SDS011;33659;42.672;23.354;2022-11-20T00:32:23;8.80;;;4.97;;
11691;SDS011;33659;42.672;23.354;2022-11-20T00:34:51;5.43;;;4.70;;
11691;SDS011;33659;42.672;23.354;2022-11-20T00:37:17;6.82;;;3.88;;
11691;SDS011;33659;42.672;23.354;2022-11-20T00:39:44;6.75;;;3.60;;
11691;SDS011;33659;42.672;23.354;2022-11-20T00:42:11;4.63;;;2.90;;
11691;SDS011;33659;42.672;23.354;2022-11-20T00:44:37;6.30;;;3.88;;
11691;SDS011;33659;42.672;23.354;2022-11-20T00:47:04;4.93;;;2.50;;
11691;SDS011;33659;42.672;23.354;2022-11-20T00:49:31;9.77;;;2.75;;
11691;SDS011;33659;42.672;23.354;2022-11-20T00:51:59;4.95;;;2.60;;
11691;SDS011;33659;42.672;23.354;2022-11-20T00:54:26;3.17;;;2.25;;
11691;SDS011;33659;42.672;23.354;2022-11-20T00:56:52;3.38;;;2.95;;
11691;SDS011;33659;42.672;23.354;2022-11-20T00:59:19;3.25;;;2.80;;
11691;SDS011;33659;42.672;23.354;2022-11-20T01:01:46;5.38;;;1.70;;
11691;SDS011;33659;42.672;23.354;2022-11-20T01:04:13;2.35;;;1.48;;
11691;SDS011;33659;42.672;23.354;2022-11-20T01:06:39;1.83;;;1.63;;
11691;SDS011;33659;42.672;23.354;2022-11-20T01:09:08;3.17;;;1.90;;
11691;SDS011;33659;42.672;23.354;2022-11-20T01:11:37;2.80;;;1.55;;
11691;SDS011;33659;42.672;23.354;2022-11-20T01:14:06;1.85;;;1.10;;
11691;SDS011;33659;42.672;23.354;2022-11-20T01:16:36;2.45;;;1.45;;
11691;SDS011;33659;42.672;23.354;2022-11-20T01:19:05;2.42;;;1.13;;
11691;SDS011;33659;42.672;23.354;2022-11-20T01:21:34;2.35;;;1.45;;
11691;SDS011;33659;42.672;23.354;2022-11-20T01:24:02;4.07;;;1.90;;
11691;SDS011;33659;42.672;23.354;2022-11-20T01:26:31;2.88;;;1.80;;
11691;SDS011;33659;42.672;23.354;2022-11-20T01:28:59;2.55;;;1.17;;
11691;SDS011;33659;42.672;23.354;2022-11-20T01:31:28;3.55;;;2.20;;
11691;SDS011;33659;42.672;23.354;2022-11-20T01:33:57;2.70;;;1.25;;
11691;SDS011;33659;42.672;23.354;2022-11-20T01:36:26;3.53;;;1.63;;
11691;SDS011;33659;42.672;23.354;2022-11-20T01:38:54;3.30;;;1.77;;
11691;SDS011;33659;42.672;23.354;2022-11-20T01:41:22;2.38;;;2.00;;
11691;SDS011;33659;42.672;23.354;2022-11-20T01:44:10;2.70;;;2.20;;
11691;SDS011;33659;42.672;23.354;2022-11-20T01:46:40;2.95;;;2.00;;
11691;SDS011;33659;42.672;23.354;2022-11-20T01:49:15;2.47;;;2.03;;
11691;SDS011;33659;42.672;23.354;2022-11-20T01:51:48;2.17;;;1.40;;
11691;SDS011;33659;42.672;23.354;2022-11-20T01:54:19;4.20;;;1.05;;
11691;SDS011;33659;42.672;23.354;2022-11-20T01:56:51;1.35;;;1.02;;
11691;SDS011;33659;42.672;23.354;2022-11-20T01:59:23;1.63;;;1.05;;
11691;SDS011;33659;42.672;23.354;2022-11-20T02:01:52;2.05;;;1.40;;
11691;SDS011;33659;42.672;23.354;2022-11-20T02:04:19;3.10;;;1.77;;
11691;SDS011;33659;42.672;23.354;2022-11-20T02:06:47;2.50;;;2.20;;
11691;SDS011;33659;42.672;23.354;2022-11-20T02:09:16;2.08;;;1.67;;
11691;SDS011;33659;42.672;23.354;2022-11-20T02:11:43;2.92;;;1.55;;
11691;SDS011;33659;42.672;23.354;2022-11-20T02:14:09;2.88;;;1.80;;
11691;SDS011;33659;42.672;23.354;2022-11-20T02:16:37;3.00;;;1.98;;
11691;SDS011;33659;42.672;23.354;2022-11-20T02:19:09;3.60;;;1.98;;
11691;SDS011;33659;42.672;23.354;2022-11-20T02:21:43;1.92;;;1.25;;
11691;SDS011;33659;42.672;23.354;2022-11-20T02:24:16;1.98;;;1.88;;
11691;SDS011;33659;42.672;23.354;2022-11-20T02:26:46;2.95;;;1.77;;
11691;SDS011;33659;42.672;23.354;2022-11-20T02:29:19;3.67;;;1.45;;
11691;SDS011;33659;42.672;23.354;2022-11-20T02:31:50;1.40;;;1.20;;
11691;SDS011;33659;42.672;23.354;2022-11-20T02:34:17;3.03;;;1.88;;
11691;SDS011;33659;42.672;23.354;2022-11-20T02:36:44;1.70;;;1.15;;
11691;SDS011;33659;42.672;23.354;2022-11-20T02:39:11;1.30;;;1.10;;
11691;SDS011;33659;42.672;23.354;2022-11-20T02:41:43;0.80;;;0.75;;
11691;SDS011;33659;42.672;23.354;2022-11-20T02:44:10;2.60;;;1.42;;
11691;SDS011;33659;42.672;23.354;2022-11-20T02:46:37;1.80;;;1.05;;
11691;SDS011;33659;42.672;23.354;2022-11-20T02:49:04;1.38;;;1.25;;
11691;SDS011;33659;42.672;23.354;2022-11-20T02:51:31;1.00;;;0.82;;
11691;SDS011;33659;42.672;23.354;2022-11-20T02:53:58;2.75;;;1.25;;
11691;SDS011;33659;42.672;23.354;2022-11-20T02:56:25;1.70;;;1.20;;
11691;SDS011;33659;42.672;23.354;2022-11-20T02:58:53;0.75;;;0.75;;
11691;SDS011;33659;42.672;23.354;2022-11-20T03:01:20;1.92;;;0.77;;
11691;SDS011;33659;42.672;23.354;2022-11-20T03:03:47;0.70;;;0.70;;
11691;SDS011;33659;42.672;23.354;2022-11-20T03:06:14;5.50;;;1.23;;
11691;SDS011;33659;42.672;23.354;2022-11-20T03:08:41;2.72;;;1.40;;
11691;SDS011;33659;42.672;23.354;2022-11-20T03:11:08;1.58;;;0.90;;
11691;SDS011;33659;42.672;23.354;2022-11-20T03:13:35;2.88;;;0.80;;
11691;SDS011;33659;42.672;23.354;2022-11-20T03:16:11;3.17;;;1.35;;
11691;SDS011;33659;42.672;23.354;2022-11-20T03:18:40;2.03;;;1.45;;
11691;SDS011;33659;42.672;23.354;2022-11-20T03:21:07;0.75;;;0.75;;
11691;SDS011;33659;42.672;23.354;2022-11-20T03:23:35;1.90;;;1.00;;
11691;SDS011;33659;42.672;23.354;2022-11-20T03:26:12;4.13;;;0.82;;
11691;SDS011;33659;42.672;23.354;2022-11-20T03:28:41;1.48;;;1.23;;
11691;SDS011;33659;42.672;23.354;2022-11-20T03:31:11;1.42;;;0.68;;
11691;SDS011;33659;42.672;23.354;2022-11-20T03:33:39;2.72;;;1.00;;
11691;SDS011;33659;42.672;23.354;2022-11-20T03:36:07;0.57;;;0.55;;
11691;SDS011;33659;42.672;23.354;2022-11-20T03:38:35;2.38;;;1.10;;
11691;SDS011;33659;42.672;23.354;2022-11-20T03:41:02;0.90;;;0.90;;
11691;SDS011;33659;42.672;23.354;2022-11-20T03:43:31;0.90;;;0.70;;
11691;SDS011;33659;42.672;23.354;2022-11-20T03:45:58;1.42;;;0.90;;
11691;SDS011;33659;42.672;23.354;2022-11-20T03:48:27;2.70;;;0.68;;
11691;SDS011;33659;42.672;23.354;2022-11-20T03:51:05;0.63;;;0.63;;
11691;SDS011;33659;42.672;23.354;2022-11-20T03:53:33;3.25;;;1.27;;
11691;SDS011;33659;42.672;23.354;2022-11-20T03:56:00;1.65;;;1.15;;
11691;SDS011;33659;42.672;23.354;2022-11-20T03:58:26;1.30;;;0.90;;
11691;SDS011;33659;42.672;23.354;2022-11-20T04:00:53;1.33;;;1.23;;
11691;SDS011;33659;42.672;23.354;2022-11-20T04:03:20;1.35;;;0.90;;
11691;SDS011;33659;42.672;23.354;2022-11-20T04:05:48;2.00;;;0.95;;
11691;SDS011;33659;42.672;23.354;2022-11-20T04:08:14;1.73;;;0.90;;
11691;SDS011;33659;42.672;23.354;2022-11-20T04:10:41;3.33;;;1.02;;
11691;SDS011;33659;42.672;23.354;2022-11-20T04:13:08;1.10;;;0.90;;
11691;SDS011;33659;42.672;23.354;2022-11-20T04:15:34;2.75;;;1.20;;
11691;SDS011;33659;42.672;23.354;2022-11-20T04:18:01;5.70;;;1.27;;
11691;SDS011;33659;42.672;23.354;2022-11-20T04:20:28;0.90;;;0.90;;
11691;SDS011;33659;42.672;23.354;2022-11-20T04:22:56;1.10;;;1.00;;
11691;SDS011;33659;42.672;23.354;2022-11-20T04:25:23;2.20;;;0.90;;
11691;SDS011;33659;42.672;23.354;2022-11-20T04:27:49;1.02;;;0.82;;
11691;SDS011;33659;42.672;23.354;2022-11-20T04:30:16;1.50;;;1.20;;
11691;SDS011;33659;42.672;23.354;2022-11-20T04:32:43;1.48;;;0.77;;
11691;SDS011;33659;42.672;23.354;2022-11-20T04:35:09;1.90;;;0.63;;
11691;SDS011;33659;42.672;23.354;2022-11-20T04:37:36;3.60;;;1.50;;
11691;SDS011;33659;42.672;23.354;2022-11-20T04:40:05;2.78;;;0.93;;
11691;SDS011;33659;42.672;23.354;2022-11-20T04:42:32;2.70;;;1.15;;
11691;SDS011;33659;42.672;23.354;2022-11-20T04:44:58;3.70;;;1.60;;
11691;SDS011;33659;42.672;23.354;2022-11-20T04:47:25;2.28;;;0.95;;
11691;SDS011;33659;42.672;23.354;2022-11-20T04:49:52;1.30;;;1.00;;
11691;SDS011;33659;42.672;23.354;2022-11-20T04:52:18;1.15;;;0.80;;
11691;SDS011;33659;42.672;23.354;2022-11-20T04:54:45;1.00;;;0.88;;
11691;SDS011;33659;42.672;23.354;2022-11-20T04:57:14;0.90;;;0.88;;
11691;SDS011;33659;42.672;23.354;2022-11-20T04:59:41;1.13;;;0.98;;
11691;SDS011;33659;42.672;23.354;2022-11-20T05:02:08;0.93;;;0.63;;
11691;SDS011;33659;42.672;23.354;2022-11-20T05:04:35;4.45;;;1.10;;
11691;SDS011;33659;42.672;23.354;2022-11-20T05:07:02;2.67;;;0.98;;
11691;SDS011;33659;42.672;23.354;2022-11-20T05:09:29;0.65;;;0.65;;
11691;SDS011;33659;42.672;23.354;2022-11-20T05:11:56;0.80;;;0.70;;
11691;SDS011;33659;42.672;23.354;2022-11-20T05:14:24;0.63;;;0.60;;
11691;SDS011;33659;42.672;23.354;2022-11-20T05:16:51;0.98;;;0.68;;
11691;SDS011;33659;42.672;23.354;2022-11-20T05:19:17;2.00;;;0.80;;
11691;SDS011;33659;42.672;23.354;2022-11-20T05:21:44;1.15;;;0.95;;
11691;SDS011;33659;42.672;23.354;2022-11-20T05:24:11;1.35;;;0.82;;
11691;SDS011;33659;42.672;23.354;2022-11-20T05:26:37;5.05;;;2.20;;
11691;SDS011;33659;42.672;23.354;2022-11-20T05:29:04;2.78;;;1.08;;
11691;SDS011;33659;42.672;23.354;2022-11-20T05:31:32;2.95;;;1.10;;
11691;SDS011;33659;42.672;23.354;2022-11-20T05:33:59;1.42;;;1.10;;
11691;SDS011;33659;42.672;23.354;2022-11-20T05:36:25;1.08;;;0.80;;
11691;SDS011;33659;42.672;23.354;2022-11-20T05:38:52;2.42;;;1.60;;
11691;SDS011;33659;42.672;23.354;2022-11-20T05:41:19;3.17;;;1.20;;
11691;SDS011;33659;42.672;23.354;2022-11-20T05:43:47;1.52;;;1.13;;
11691;SDS011;33659;42.672;23.354;2022-11-20T05:46:16;2.58;;;0.95;;
11691;SDS011;33659;42.672;23.354;2022-11-20T05:48:45;2.53;;;1.38;;
11691;SDS011;33659;42.672;23.354;2022-11-20T05:51:13;2.28;;;1.10;;
11691;SDS011;33659;42.672;23.354;2022-11-20T05:53:41;3.85;;;1.42;;
11691;SDS011;33659;42.672;23.354;2022-11-20T05:56:09;4.50;;;1.70;;
11691;SDS011;33659;42.672;23.354;2022-11-20T05:58:37;5.30;;;1.40;;
11691;SDS011;33659;42.672;23.354;2022-11-20T06:01:05;0.90;;;0.90;;
11691;SDS011;33659;42.672;23.354;2022-11-20T06:03:34;4.80;;;1.35;;
11691;SDS011;33659;42.672;23.354;2022-11-20T06:06:02;2.17;;;1.30;;
11691;SDS011;33659;42.672;23.354;2022-11-20T06:08:30;2.00;;;1.63;;
11691;SDS011;33659;42.672;23.354;2022-11-20T06:10:57;2.08;;;0.98;;
11691;SDS011;33659;42.672;23.354;2022-11-20T06:13:24;4.50;;;1.10;;
11691;SDS011;33659;42.672;23.354;2022-11-20T06:15:51;4.32;;;1.83;;
11691;SDS011;33659;42.672;23.354;2022-11-20T06:18:19;3.65;;;1.30;;
11691;SDS011;33659;42.672;23.354;2022-11-20T06:20:46;2.60;;;1.25;;
11691;SDS011;33659;42.672;23.354;2022-11-20T06:23:15;3.60;;;1.50;;
11691;SDS011;33659;42.672;23.354;2022-11-20T06:25:42;2.92;;;1.23;;
11691;SDS011;33659;42.672;23.354;2022-11-20T06:28:09;1.77;;;1.10;;
11691;SDS011;33659;42.672;23.354;2022-11-20T06:30:35;1.42;;;1.08;;
11691;SDS011;33659;42.672;23.354;2022-11-20T06:33:02;4.63;;;1.33;;
11691;SDS011;33659;42.672;23.354;2022-11-20T06:35:29;1.80;;;1.10;;
11691;SDS011;33659;42.672;23.354;2022-11-20T06:37:56;1.77;;;1.13;;
11691;SDS011;33659;42.672;23.354;2022-11-20T06:40:24;1.25;;;1.15;;
11691;SDS011;33659;42.672;23.354;2022-11-20T06:42:50;7.78;;;1.50;;
11691;SDS011;33659;42.672;23.354;2022-11-20T06:45:19;3.70;;;1.40;;
11691;SDS011;33659;42.672;23.354;2022-11-20T06:47:46;3.70;;;1.30;;
11691;SDS011;33659;42.672;23.354;2022-11-20T06:50:12;3.15;;;0.93;;
11691;SDS011;33659;42.672;23.354;2022-11-20T06:52:39;1.20;;;1.00;;
11691;SDS011;33659;42.672;23.354;2022-11-20T06:55:06;3.00;;;1.45;;
11691;SDS011;33659;42.672;23.354;2022-11-20T06:57:35;1.75;;;1.00;;
11691;SDS011;33659;42.672;23.354;2022-11-20T07:00:02;4.25;;;1.25;;
11691;SDS011;33659;42.672;23.354;2022-11-20T07:02:29;1.27;;;1.17;;
11691;SDS011;33659;42.672;23.354;2022-11-20T07:04:55;2.33;;;1.17;;
11691;SDS011;33659;42.672;23.354;2022-11-20T07:07:22;2.60;;;1.13;;
11691;SDS011;33659;42.672;23.354;2022-11-20T07:09:49;2.40;;;0.82;;
11691;SDS011;33659;42.672;23.354;2022-11-20T07:12:16;1.17;;;0.88;;
11691;SDS011;33659;42.672;23.354;2022-11-20T07:14:44;2.85;;;1.20;;
11691;SDS011;33659;42.672;23.354;2022-11-20T07:17:11;3.00;;;1.05;;
11691;SDS011;33659;42.672;23.354;2022-11-20T07:19:37;2.42;;;1.30;;
11691;SDS011;33659;42.672;23.354;2022-11-20T07:22:04;2.70;;;1.52;;
11691;SDS011;33659;42.672;23.354;2022-11-20T07:24:31;2.35;;;1.67;;
11691;SDS011;33659;42.672;23.354;2022-11-20T07:26:57;1.42;;;1.08;;
11691;SDS011;33659;42.672;23.354;2022-11-20T07:29:24;2.35;;;1.40;;
11691;SDS011;33659;42.672;23.354;2022-11-20T07:31:52;2.38;;;1.10;;
11691;SDS011;33659;42.672;23.354;2022-11-20T07:34:20;1.77;;;1.27;;
11691;SDS011;33659;42.672;23.354;2022-11-20T07:36:47;1.08;;;1.00;;
11691;SDS011;33659;42.672;23.354;2022-11-20T07:39:13;2.83;;;1.40;;
11691;SDS011;33659;42.672;23.354;2022-11-20T07:41:40;3.72;;;1.63;;
11691;SDS011;33659;42.672;23.354;2022-11-20T07:44:07;3.35;;;1.45;;
11691;SDS011;33659;42.672;23.354;2022-11-20T07:46:33;3.78;;;1.60;;
11691;SDS011;33659;42.672;23.354;2022-11-20T07:49:01;5.25;;;1.55;;
11691;SDS011;33659;42.672;23.354;2022-11-20T07:51:28;1.92;;;1.20;;
11691;SDS011;33659;42.672;23.354;2022-11-20T07:53:55;2.80;;;1.67;;
11691;SDS011;33659;42.672;23.354;2022-11-20T07:56:22;3.03;;;1.30;;
11691;SDS011;33659;42.672;23.354;2022-11-20T07:58:49;1.73;;;1.00;;
11691;SDS011;33659;42.672;23.354;2022-11-20T08:01:15;1.20;;;1.10;;
11691;SDS011;33659;42.672;23.354;2022-11-20T08:03:42;2.25;;;1.30;;
11691;SDS011;33659;42.672;23.354;2022-11-20T08:06:10;3.30;;;1.23;;
11691;SDS011;33659;42.672;23.354;2022-11-20T08:08:37;3.28;;;1.15;;
11691;SDS011;33659;42.672;23.354;2022-11-20T08:11:04;2.47;;;1.15;;
11691;SDS011;33659;42.672;23.354;2022-11-20T08:13:48;1.75;;;1.25;;
11691;SDS011;33659;42.672;23.354;2022-11-20T08:16:32;4.70;;;1.80;;
11691;SDS011;33659;42.672;23.354;2022-11-20T08:18:59;1.95;;;1.20;;
11691;SDS011;33659;42.672;23.354;2022-11-20T08:21:27;3.53;;;1.42;;
11691;SDS011;33659;42.672;23.354;2022-11-20T08:23:54;5.22;;;1.30;;
11691;SDS011;33659;42.672;23.354;2022-11-20T08:26:20;2.25;;;1.40;;
11691;SDS011;33659;42.672;23.354;2022-11-20T08:28:47;3.03;;;1.40;;
11691;SDS011;33659;42.672;23.354;2022-11-20T08:31:14;2.15;;;1.33;;
11691;SDS011;33659;42.672;23.354;2022-11-20T08:33:41;3.75;;;1.67;;
11691;SDS011;33659;42.672;23.354;2022-11-20T08:36:07;2.47;;;1.48;;
11691;SDS011;33659;42.672;23.354;2022-11-20T08:38:36;6.72;;;1.33;;
11691;SDS011;33659;42.672;23.354;2022-11-20T08:41:03;2.83;;;1.38;;
11691;SDS011;33659;42.672;23.354;2022-11-20T08:43:47;2.65;;;1.40;;
11691;SDS011;33659;42.672;23.354;2022-11-20T08:46:14;1.33;;;1.05;;
11691;SDS011;33659;42.672;23.354;2022-11-20T08:48:42;3.83;;;1.48;;
11691;SDS011;33659;42.672;23.354;2022-11-20T08:51:09;5.85;;;1.67;;
11691;SDS011;33659;42.672;23.354;2022-11-20T08:53:38;2.92;;;1.48;;
11691;SDS011;33659;42.672;23.354;2022-11-20T08:56:05;3.22;;;1.60;;
11691;SDS011;33659;42.672;23.354;2022-11-20T08:58:32;5.85;;;1.83;;
11691;SDS011;33659;42.672;23.354;2022-11-20T09:00:59;5.18;;;1.17;;
11691;SDS011;33659;42.672;23.354;2022-11-20T09:03:26;3.33;;;1.38;;
11691;SDS011;33659;42.672;23.354;2022-11-20T09:05:56;3.17;;;1.83;;
11691;SDS011;33659;42.672;23.354;2022-11-20T09:08:24;4.97;;;1.67;;
11691;SDS011;33659;42.672;23.354;2022-11-20T09:10:53;2.67;;;1.80;;
11691;SDS011;33659;42.672;23.354;2022-11-20T09:13:20;2.53;;;1.30;;
11691;SDS011;33659;42.672;23.354;2022-11-20T09:15:52;3.28;;;1.50;;
11691;SDS011;33659;42.672;23.354;2022-11-20T09:18:20;6.20;;;1.92;;
11691;SDS011;33659;42.672;23.354;2022-11-20T09:20:47;5.03;;;2.45;;
11691;SDS011;33659;42.672;23.354;2022-11-20T09:23:14;4.43;;;1.70;;
11691;SDS011;33659;42.672;23.354;2022-11-20T09:25:40;1.45;;;1.30;;
11691;SDS011;33659;42.672;23.354;2022-11-20T09:28:09;1.63;;;1.10;;
11691;SDS011;33659;42.672;23.354;2022-11-20T09:30:35;1.40;;;1.30;;
11691;SDS011;33659;42.672;23.354;2022-11-20T09:33:03;1.30;;;0.90;;
11691;SDS011;33659;42.672;23.354;2022-11-20T09:35:31;1.33;;;1.13;;
11691;SDS011;33659;42.672;23.354;2022-11-20T09:37:57;3.67;;;1.20;;
11691;SDS011;33659;42.672;23.354;2022-11-20T09:40:25;1.58;;;1.00;;
11691;SDS011;33659;42.672;23.354;2022-11-20T09:42:55;2.78;;;1.05;;
11691;SDS011;33659;42.672;23.354;2022-11-20T09:45:33;5.72;;;2.03;;
11691;SDS011;33659;42.672;23.354;2022-11-20T09:48:10;2.53;;;1.15;;
11691;SDS011;33659;42.672;23.354;2022-11-20T09:50:52;1.48;;;1.13;;
11691;SDS011;33659;42.672;23.354;2022-11-20T09:53:25;1.77;;;1.25;;
11691;SDS011;33659;42.672;23.354;2022-11-20T09:56:01;1.23;;;1.10;;
11691;SDS011;33659;42.672;23.354;2022-11-20T09:58:31;1.17;;;1.08;;
11691;SDS011;33659;42.672;23.354;2022-11-20T10:01:09;3.72;;;1.10;;
11691;SDS011;33659;42.672;23.354;2022-11-20T10:03:41;1.67;;;1.27;;
11691;SDS011;33659;42.672;23.354;2022-11-20T10:06:17;2.67;;;2.00;;
11691;SDS011;33659;42.672;23.354;2022-11-20T10:08:54;2.45;;;1.92;;
11691;SDS011;33659;42.672;23.354;2022-11-20T10:11:32;5.53;;;2.17;;
11691;SDS011;33659;42.672;23.354;2022-11-20T10:14:12;3.03;;;2.05;;
11691;SDS011;33659;42.672;23.354;2022-11-20T10:16:47;5.15;;;1.73;;
11691;SDS011;33659;42.672;23.354;2022-11-20T10:19:26;10.40;;;2.83;;
11691;SDS011;33659;42.672;23.354;2022-11-20T10:22:05;7.03;;;3.00;;
11691;SDS011;33659;42.672;23.354;2022-11-20T10:24:43;3.65;;;2.63;;
11691;SDS011;33659;42.672;23.354;2022-11-20T10:30:07;2.28;;;1.95;;
11691;SDS011;33659;42.672;23.354;2022-11-20T10:32:38;7.35;;;2.55;;
11691;SDS011;33659;42.672;23.354;2022-11-20T10:35:07;5.75;;;2.30;;
11691;SDS011;33659;42.672;23.354;2022-11-20T10:37:46;5.95;;;2.95;;
11691;SDS011;33659;42.672;23.354;2022-11-20T10:40:18;2.67;;;2.47;;
11691;SDS011;33659;42.672;23.354;2022-11-20T10:42:51;3.50;;;2.38;;
11691;SDS011;33659;42.672;23.354;2022-11-20T10:45:28;3.75;;;2.50;;
11691;SDS011;33659;42.672;23.354;2022-11-20T10:48:09;4.65;;;2.45;;
11691;SDS011;33659;42.672;23.354;2022-11-20T10:50:40;3.70;;;1.80;;
11691;SDS011;33659;42.672;23.354;2022-11-20T10:53:17;4.68;;;2.65;;
11691;SDS011;33659;42.672;23.354;2022-11-20T10:55:55;7.10;;;2.38;;
11691;SDS011;33659;42.672;23.354;2022-11-20T10:58:31;3.20;;;2.15;;
11691;SDS011;33659;42.672;23.354;2022-11-20T11:01:13;5.28;;;2.70;;
11691;SDS011;33659;42.672;23.354;2022-11-20T11:03:42;3.17;;;2.58;;
11691;SDS011;33659;42.672;23.354;2022-11-20T11:06:12;6.63;;;2.75;;
11691;SDS011;33659;42.672;23.354;2022-11-20T11:08:47;5.13;;;2.58;;
11691;SDS011;33659;42.672;23.354;2022-11-20T11:11:19;6.93;;;2.80;;
11691;SDS011;33659;42.672;23.354;2022-11-20T11:13:49;5.13;;;2.65;;
11691;SDS011;33659;42.672;23.354;2022-11-20T11:16:19;6.07;;;2.10;;
11691;SDS011;33659;42.672;23.354;2022-11-20T11:18:49;2.47;;;1.65;;
11691;SDS011;33659;42.672;23.354;2022-11-20T11:21:21;1.17;;;0.80;;
11691;SDS011;33659;42.672;23.354;2022-11-20T11:23:57;1.92;;;0.95;;
11691;SDS011;33659;42.672;23.354;2022-11-20T11:26:25;1.40;;;1.10;;
11691;SDS011;33659;42.672;23.354;2022-11-20T11:28:53;1.45;;;1.15;;
11691;SDS011;33659;42.672;23.354;2022-11-20T11:31:22;3.10;;;1.08;;
11691;SDS011;33659;42.672;23.354;2022-11-20T11:33:51;1.40;;;1.08;;
11691;SDS011;33659;42.672;23.354;2022-11-20T11:36:18;1.17;;;1.00;;
11691;SDS011;33659;42.672;23.354;2022-11-20T11:38:50;2.40;;;1.25;;
11691;SDS011;33659;42.672;23.354;2022-11-20T11:41:19;1.65;;;1.40;;
11691;SDS011;33659;42.672;23.354;2022-11-20T11:43:51;0.95;;;0.90;;
11691;SDS011;33659;42.672;23.354;2022-11-20T11:46:44;0.93;;;0.75;;
11691;SDS011;33659;42.672;23.354;2022-11-20T11:49:20;1.38;;;0.80;;
11691;SDS011;33659;42.672;23.354;2022-11-20T11:51:54;3.22;;;1.08;;
11691;SDS011;33659;42.672;23.354;2022-11-20T11:54:28;1.38;;;0.80;;
11691;SDS011;33659;42.672;23.354;2022-11-20T11:57:00;2.35;;;0.88;;
11691;SDS011;33659;42.672;23.354;2022-11-20T11:59:34;2.85;;;0.95;;
11691;SDS011;33659;42.672;23.354;2022-11-20T12:02:15;0.70;;;0.70;;
11691;SDS011;33659;42.672;23.354;2022-11-20T12:04:56;1.83;;;0.82;;
11691;SDS011;33659;42.672;23.354;2022-11-20T12:07:28;1.55;;;1.05;;
11691;SDS011;33659;42.672;23.354;2022-11-20T12:10:04;5.70;;;1.20;;
11691;SDS011;33659;42.672;23.354;2022-11-20T12:12:40;2.55;;;0.73;;
11691;SDS011;33659;42.672;23.354;2022-11-20T12:15:12;2.00;;;0.90;;
11691;SDS011;33659;42.672;23.354;2022-11-20T12:17:46;2.10;;;1.00;;
11691;SDS011;33659;42.672;23.354;2022-11-20T12:20:15;3.55;;;0.95;;
11691;SDS011;33659;42.672;23.354;2022-11-20T12:22:44;2.67;;;0.90;;
11691;SDS011;33659;42.672;23.354;2022-11-20T12:25:19;0.90;;;0.90;;
11691;SDS011;33659;42.672;23.354;2022-11-20T12:30:49;2.38;;;0.60;;
11691;SDS011;33659;42.672;23.354;2022-11-20T12:33:39;1.75;;;0.93;;
11691;SDS011;33659;42.672;23.354;2022-11-20T12:36:21;0.80;;;0.70;;
11691;SDS011;33659;42.672;23.354;2022-11-20T12:39:05;1.70;;;0.93;;
11691;SDS011;33659;42.672;23.354;2022-11-20T12:41:54;0.60;;;0.47;;
11691;SDS011;33659;42.672;23.354;2022-11-20T12:50:46;2.47;;;1.13;;
11691;SDS011;33659;42.672;23.354;2022-11-20T12:53:25;3.13;;;1.00;;
11691;SDS011;33659;42.672;23.354;2022-11-20T12:55:58;4.88;;;1.30;;
11691;SDS011;33659;42.672;23.354;2022-11-20T12:58:37;1.38;;;1.08;;
11691;SDS011;33659;42.672;23.354;2022-11-20T13:01:12;1.60;;;1.15;;
11691;SDS011;33659;42.672;23.354;2022-11-20T13:04:07;7.18;;;1.83;;
11691;SDS011;33659;42.672;23.354;2022-11-20T13:06:41;3.50;;;1.67;;
11691;SDS011;33659;42.672;23.354;2022-11-20T13:11:41;2.92;;;1.85;;
11691;SDS011;33659;42.672;23.354;2022-11-20T13:14:16;3.65;;;1.80;;
11691;SDS011;33659;42.672;23.354;2022-11-20T13:16:54;3.80;;;1.90;;
11691;SDS011;33659;42.672;23.354;2022-11-20T13:19:26;3.75;;;1.60;;
11691;SDS011;33659;42.672;23.354;2022-11-20T13:21:54;3.55;;;2.00;;
11691;SDS011;33659;42.672;23.354;2022-11-20T13:24:24;4.68;;;1.88;;
11691;SDS011;33659;42.672;23.354;2022-11-20T13:27:02;1.40;;;1.30;;
11691;SDS011;33659;42.672;23.354;2022-11-20T13:29:31;5.32;;;2.30;;
11691;SDS011;33659;42.672;23.354;2022-11-20T13:32:03;5.82;;;1.80;;
11691;SDS011;33659;42.672;23.354;2022-11-20T13:34:32;5.03;;;1.85;;
11691;SDS011;33659;42.672;23.354;2022-11-20T13:37:00;3.05;;;1.85;;
11691;SDS011;33659;42.672;23.354;2022-11-20T13:39:31;3.00;;;1.95;;
11691;SDS011;33659;42.672;23.354;2022-11-20T13:41:59;2.38;;;2.15;;
11691;SDS011;33659;42.672;23.354;2022-11-20T13:44:29;3.53;;;1.90;;
11691;SDS011;33659;42.672;23.354;2022-11-20T13:47:00;2.70;;;1.55;;
11691;SDS011;33659;42.672;23.354;2022-11-20T13:49:30;6.30;;;2.20;;
11691;SDS011;33659;42.672;23.354;2022-11-20T13:55:02;5.75;;;2.40;;
11691;SDS011;33659;42.672;23.354;2022-11-20T13:57:50;2.50;;;1.83;;
11691;SDS011;33659;42.672;23.354;2022-11-20T14:00:41;2.95;;;1.83;;
11691;SDS011;33659;42.672;23.354;2022-11-20T14:03:12;6.13;;;3.17;;
11691;SDS011;33659;42.672;23.354;2022-11-20T14:05:45;3.95;;;2.25;;
11691;SDS011;33659;42.672;23.354;2022-11-20T14:08:20;4.00;;;2.40;;
11691;SDS011;33659;42.672;23.354;2022-11-20T14:11:03;7.13;;;2.53;;
11691;SDS011;33659;42.672;23.354;2022-11-20T14:13:30;3.83;;;2.22;;
11691;SDS011;33659;42.672;23.354;2022-11-20T14:15:57;4.57;;;2.35;;
11691;SDS011;33659;42.672;23.354;2022-11-20T14:18:25;5.28;;;2.72;;
11691;SDS011;33659;42.672;23.354;2022-11-20T14:20:52;3.80;;;2.75;;
11691;SDS011;33659;42.672;23.354;2022-11-20T14:23:26;5.13;;;2.65;;
11691;SDS011;33659;42.672;23.354;2022-11-20T14:25:53;5.47;;;2.60;;
11691;SDS011;33659;42.672;23.354;2022-11-20T14:28:24;5.65;;;3.13;;
11691;SDS011;33659;42.672;23.354;2022-11-20T14:30:52;4.55;;;2.70;;
11691;SDS011;33659;42.672;23.354;2022-11-20T14:33:20;4.95;;;2.40;;
11691;SDS011;33659;42.672;23.354;2022-11-20T14:35:50;6.75;;;3.25;;
11691;SDS011;33659;42.672;23.354;2022-11-20T14:38:20;5.72;;;3.00;;
11691;SDS011;33659;42.672;23.354;2022-11-20T14:40:50;6.15;;;2.88;;
11691;SDS011;33659;42.672;23.354;2022-11-20T14:43:18;5.20;;;2.90;;
11691;SDS011;33659;42.672;23.354;2022-11-20T14:45:50;7.63;;;3.42;;
11691;SDS011;33659;42.672;23.354;2022-11-20T14:48:23;10.18;;;3.70;;
11691;SDS011;33659;42.672;23.354;2022-11-20T14:50:54;5.88;;;3.67;;
11691;SDS011;33659;42.672;23.354;2022-11-20T14:53:22;7.90;;;3.50;;
11691;SDS011;33659;42.672;23.354;2022-11-20T14:55:54;5.03;;;2.65;;
11691;SDS011;33659;42.672;23.354;2022-11-20T14:58:22;4.20;;;2.70;;
11691;SDS011;33659;42.672;23.354;2022-11-20T15:00:54;6.03;;;2.92;;
11691;SDS011;33659;42.672;23.354;2022-11-20T15:03:22;5.75;;;3.00;;
11691;SDS011;33659;42.672;23.354;2022-11-20T15:05:49;5.93;;;2.78;;